Time;durP1;ratioP1;P1;durP2;ratioP2;P2;SDS_P1;SDS_P2;PMS_P1;PMS_P2;Temp;Humidity;BMP_temperature;BMP_pressure;BME280_temperature;BME280_humidity;BME280_pressure;Samples;Min_cycle;Max_cycle;Signal;HPM_P1;HPM_P2
2023/05/04 00:01:42;;;;;;;8.93;6.50;;;7.00;99.90;;;;;;5078096;28;20434;-63
2023/05/04 00:04:09;;;;;;;7.67;5.97;;;6.90;99.90;;;;;;5078628;28;20473;-63
2023/05/04 00:06:37;;;;;;;10.40;6.57;;;6.90;99.90;;;;;;5078704;28;20559;-63
2023/05/04 00:09:06;;;;;;;8.17;6.40;;;6.90;99.90;;;;;;5079361;28;20497;-63
2023/05/04 00:11:34;;;;;;;8.27;6.30;;;6.80;99.90;;;;;;5078795;28;20499;-63
2023/05/04 00:14:01;;;;;;;12.43;7.00;;;6.70;99.90;;;;;;5078249;28;20987;-63
2023/05/04 00:16:28;;;;;;;7.50;6.53;;;6.70;99.90;;;;;;5078497;28;20470;-63
2023/05/04 00:18:58;;;;;;;10.13;6.40;;;6.70;99.90;;;;;;5078241;28;20780;-63
2023/05/04 00:21:25;;;;;;;10.20;6.53;;;6.70;99.90;;;;;;5078560;28;20748;-62
2023/05/04 00:23:52;;;;;;;8.00;6.20;;;6.70;99.90;;;;;;5077343;28;20753;-62
2023/05/04 00:26:21;;;;;;;7.50;5.90;;;6.60;99.90;;;;;;5077147;28;20465;-61
2023/05/04 00:28:48;;;;;;;9.53;6.30;;;6.50;99.90;;;;;;5076580;28;20919;-65
2023/05/04 00:31:17;;;;;;;14.13;6.67;;;6.50;99.90;;;;;;5076969;28;20473;-62
2023/05/04 00:33:45;;;;;;;14.43;6.03;;;6.40;99.90;;;;;;5076893;28;20566;-63
2023/05/04 00:36:21;;;;;;;7.13;6.43;;;6.40;99.90;;;;;;5076843;28;20492;-63
2023/05/04 00:38:50;;;;;;;10.27;5.80;;;6.40;99.90;;;;;;5077113;28;20488;-63
2023/05/04 00:41:17;;;;;;;8.50;6.60;;;6.30;99.90;;;;;;5075933;28;20476;-63
2023/05/04 00:43:46;;;;;;;8.23;6.13;;;6.30;99.90;;;;;;5077024;28;20549;-63
2023/05/04 00:46:14;;;;;;;12.73;7.13;;;6.30;99.90;;;;;;5076944;28;20767;-63
2023/05/04 00:48:42;;;;;;;8.60;6.70;;;6.30;99.90;;;;;;5076718;28;20460;-63
2023/05/04 00:51:11;;;;;;;10.70;7.00;;;6.20;99.90;;;;;;5076445;28;20985;-63
2023/05/04 00:53:39;;;;;;;12.10;5.77;;;6.30;99.90;;;;;;5077140;28;20486;-63
2023/05/04 00:56:07;;;;;;;6.43;5.73;;;6.20;99.90;;;;;;5077045;28;20944;-63
2023/05/04 00:58:35;;;;;;;14.30;7.07;;;6.20;99.90;;;;;;5077079;28;20479;-62
2023/05/04 01:01:04;;;;;;;8.30;6.17;;;6.20;99.90;;;;;;5076271;28;20468;-63
2023/05/04 01:03:32;;;;;;;10.17;6.43;;;6.10;99.90;;;;;;5076405;28;20576;-63
2023/05/04 01:06:09;;;;;;;9.77;6.47;;;6.10;99.90;;;;;;5077004;28;20463;-63
2023/05/04 01:08:42;;;;;;;7.50;5.90;;;6.10;99.90;;;;;;5079530;28;20470;-63
2023/05/04 01:11:15;;;;;;;10.03;6.27;;;6.10;99.90;;;;;;5079888;28;20475;-63
2023/05/04 01:13:44;;;;;;;8.87;5.40;;;6.00;99.90;;;;;;5079821;28;20542;-63
2023/05/04 01:16:13;;;;;;;7.03;6.27;;;6.00;99.90;;;;;;5080626;28;20468;-63
2023/05/04 01:18:40;;;;;;;10.13;6.03;;;6.00;99.90;;;;;;5080368;28;20496;-63
2023/05/04 01:21:08;;;;;;;7.23;6.40;;;5.90;99.90;;;;;;5080291;28;20466;-63
2023/05/04 01:23:37;;;;;;;10.47;6.40;;;5.90;99.90;;;;;;5080188;28;20568;-63
2023/05/04 01:26:10;;;;;;;7.47;6.67;;;5.80;99.90;;;;;;5080232;28;20928;-63
2023/05/04 01:28:43;;;;;;;5.93;5.40;;;5.80;99.90;;;;;;5080174;28;20582;-63
2023/05/04 01:31:15;;;;;;;8.87;6.43;;;5.80;99.90;;;;;;5079944;28;20457;-63
2023/05/04 01:33:44;;;;;;;8.73;6.50;;;5.80;99.90;;;;;;5079790;28;20485;-63
2023/05/04 01:36:11;;;;;;;8.10;5.77;;;5.80;99.90;;;;;;5080049;28;20483;-63
2023/05/04 01:38:42;;;;;;;7.43;6.10;;;5.80;99.90;;;;;;5079591;28;20752;-63
2023/05/04 01:41:09;;;;;;;12.50;6.07;;;5.80;99.90;;;;;;5079567;28;20470;-63
2023/05/04 01:43:36;;;;;;;8.83;6.00;;;5.80;99.90;;;;;;5080014;28;20460;-63
2023/05/04 01:46:03;;;;;;;7.07;6.20;;;5.80;99.90;;;;;;5079784;28;20473;-63
2023/05/04 01:48:31;;;;;;;6.10;5.40;;;5.80;99.90;;;;;;5079990;28;20969;-63
2023/05/04 01:50:58;;;;;;;6.87;5.83;;;5.80;99.90;;;;;;5079552;28;20818;-63
2023/05/04 01:53:25;;;;;;;8.10;5.50;;;5.80;99.90;;;;;;5079213;28;20497;-63
2023/05/04 01:55:54;;;;;;;6.93;5.70;;;5.80;99.90;;;;;;5079994;28;20559;-61
2023/05/04 01:58:21;;;;;;;7.33;5.93;;;5.70;99.90;;;;;;5079873;28;20500;-63
2023/05/04 02:00:48;;;;;;;8.73;5.77;;;5.70;99.90;;;;;;5079817;28;20922;-63
2023/05/04 02:03:15;;;;;;;8.20;5.73;;;5.60;99.90;;;;;;5079563;28;20465;-63
2023/05/04 02:05:42;;;;;;;6.77;5.37;;;5.60;99.90;;;;;;5079623;28;20461;-63
2023/05/04 02:08:10;;;;;;;10.00;6.00;;;5.50;99.90;;;;;;5079865;28;20500;-63
2023/05/04 02:10:37;;;;;;;8.50;5.80;;;5.60;99.90;;;;;;5079409;28;20467;-63
2023/05/04 02:13:06;;;;;;;9.33;6.00;;;5.50;99.90;;;;;;5079049;28;20554;-63
2023/05/04 02:15:33;;;;;;;8.30;5.60;;;5.50;99.90;;;;;;5079425;28;20537;-63
2023/05/04 02:18:00;;;;;;;7.23;5.90;;;5.60;99.90;;;;;;5079542;28;20556;-63
2023/05/04 02:20:27;;;;;;;8.40;5.80;;;5.50;99.90;;;;;;5079459;28;20467;-63
2023/05/04 02:22:54;;;;;;;10.90;5.40;;;5.50;99.90;;;;;;5079369;28;20475;-63
2023/05/04 02:25:22;;;;;;;6.13;5.33;;;5.40;99.90;;;;;;5079344;28;20458;-63
2023/05/04 02:27:50;;;;;;;6.27;5.67;;;5.40;99.90;;;;;;5078628;28;20582;-62
2023/05/04 02:30:18;;;;;;;8.33;6.27;;;5.40;99.90;;;;;;5079110;28;20909;-63
2023/05/04 02:32:46;;;;;;;7.30;5.30;;;5.40;99.90;;;;;;5079255;28;20465;-63
2023/05/04 02:35:13;;;;;;;10.27;5.90;;;5.30;99.90;;;;;;5078898;28;20534;-63
2023/05/04 02:37:40;;;;;;;6.90;5.77;;;5.30;99.90;;;;;;5078981;28;20511;-63
2023/05/04 02:40:08;;;;;;;10.13;5.90;;;5.30;99.90;;;;;;5078567;28;20538;-63
2023/05/04 02:42:35;;;;;;;9.50;6.07;;;5.40;99.90;;;;;;5079102;28;20528;-63
2023/05/04 02:45:03;;;;;;;7.00;6.30;;;5.40;99.90;;;;;;5078650;28;20457;-63
2023/05/04 02:47:31;;;;;;;8.70;5.87;;;5.30;99.90;;;;;;5078818;28;20470;-63
2023/05/04 02:49:58;;;;;;;6.50;5.67;;;5.40;99.90;;;;;;5078765;28;20468;-63
2023/05/04 02:52:26;;;;;;;6.10;5.50;;;5.30;99.90;;;;;;5078827;28;20905;-63
2023/05/04 02:54:53;;;;;;;8.60;5.90;;;5.30;99.90;;;;;;5079176;28;20485;-63
2023/05/04 02:57:20;;;;;;;6.80;5.67;;;5.30;99.90;;;;;;5079921;28;20465;-63
2023/05/04 02:59:47;;;;;;;8.20;6.27;;;5.20;99.90;;;;;;5080099;28;20988;-63
2023/05/04 03:02:14;;;;;;;9.30;6.47;;;5.20;99.90;;;;;;5080197;28;20898;-63
2023/05/04 03:04:43;;;;;;;6.63;6.03;;;5.10;99.90;;;;;;5079817;28;20511;-63
2023/05/04 03:07:10;;;;;;;7.67;6.50;;;5.10;99.90;;;;;;5079371;28;20837;-63
2023/05/04 03:09:37;;;;;;;7.03;6.23;;;5.10;99.90;;;;;;5078935;28;20502;-63
2023/05/04 03:12:05;;;;;;;12.57;7.27;;;5.10;1.00;;;;;;5079503;28;20958;-63
2023/05/04 03:14:32;;;;;;;9.10;7.43;;;5.00;1.00;;;;;;5079404;28;20485;-63
2023/05/04 03:17:00;;;;;;;9.10;6.47;;;5.00;1.00;;;;;;5079366;28;20493;-63
2023/05/04 03:19:27;;;;;;;6.80;5.80;;;4.90;1.00;;;;;;5079531;28;20553;-63
2023/05/04 03:21:55;;;;;;;6.50;5.83;;;4.90;1.00;;;;;;5072564;28;20458;-63
2023/05/04 03:24:22;;;;;;;6.27;5.40;;;4.90;1.00;;;;;;5059954;28;20499;-63
2023/05/04 03:26:50;;;;;;;7.03;5.20;;;5.00;1.00;;;;;;5059134;28;20533;-63
2023/05/04 03:29:17;;;;;;;10.47;5.43;;;4.90;1.00;;;;;;5058479;28;20585;-63
2023/05/04 03:31:44;;;;;;;9.67;5.53;;;4.90;1.00;;;;;;5059526;28;20462;-63
2023/05/04 03:34:13;;;;;;;9.40;6.37;;;4.80;1.00;;;;;;5059700;28;20493;-62
2023/05/04 03:36:40;;;;;;;5.80;5.20;;;4.80;1.00;;;;;;5057664;28;20482;-63
2023/05/04 03:39:09;;;;;;;16.03;7.00;;;4.80;1.00;;;;;;5057836;28;20462;-63
2023/05/04 03:41:36;;;;;;;6.90;5.90;;;4.80;1.00;;;;;;5057757;28;20858;-64
2023/05/04 03:44:05;;;;;;;10.60;5.67;;;4.80;1.00;;;;;;5057742;28;20460;-63
2023/05/04 03:46:33;;;;;;;7.20;5.20;;;4.80;1.00;;;;;;5059288;28;20473;-63
2023/05/04 03:49:00;;;;;;;6.53;5.93;;;4.80;1.00;;;;;;5059565;28;20545;-63
2023/05/04 03:51:27;;;;;;;6.50;5.80;;;4.80;1.00;;;;;;5059196;28;20462;-63
2023/05/04 03:53:54;;;;;;;7.90;6.40;;;4.80;1.00;;;;;;5058790;28;20462;-63
2023/05/04 03:59:45;;;;;;;8.13;6.47;;;4.80;1.00;;;;;;5058445;28;20413;-63
2023/05/04 04:02:12;;;;;;;7.27;5.57;;;4.80;1.00;;;;;;5058525;28;20531;-63
2023/05/04 04:04:40;;;;;;;7.10;6.17;;;4.90;1.00;;;;;;5058913;28;20550;-63
2023/05/04 04:07:07;;;;;;;7.63;5.73;;;5.00;1.00;;;;;;5058428;28;20458;-63
2023/05/04 04:09:34;;;;;;;6.63;5.57;;;5.00;1.00;;;;;;5058316;28;20556;-63
2023/05/04 04:12:02;;;;;;;7.93;5.67;;;5.00;1.00;;;;;;5058752;28;20466;-63
2023/05/04 04:14:29;;;;;;;6.80;6.07;;;4.90;1.00;;;;;;5058447;28;20501;-63
2023/05/04 05:16:10;;;;;;;9.03;7.27;;;5.00;1.00;;;;;;5115181;22;20655;-62
2023/05/04 05:18:37;;;;;;;8.00;6.60;;;5.70;1.00;;;;;;5114014;28;20850;-62
2023/05/04 05:21:05;;;;;;;8.80;6.03;;;5.70;1.00;;;;;;5113522;28;20799;-62
2023/05/04 05:23:32;;;;;;;8.10;7.00;;;5.80;1.00;;;;;;5111890;28;20462;-62
2023/05/04 05:25:59;;;;;;;10.00;7.00;;;5.80;1.00;;;;;;5113926;28;20470;-64
2023/05/04 05:28:26;;;;;;;15.13;8.00;;;5.90;1.00;;;;;;5114986;28;20732;-64
2023/05/04 05:30:53;;;;;;;8.73;7.70;;;6.00;1.00;;;;;;5114799;28;20887;-65
2023/05/04 05:33:22;;;;;;;7.70;6.13;;;6.20;1.00;;;;;;5115151;28;20463;-64
2023/05/04 05:35:49;;;;;;;8.03;7.03;;;6.30;1.00;;;;;;5112623;28;20460;-65
2023/05/04 05:38:16;;;;;;;11.23;6.97;;;6.50;1.00;;;;;;5111406;28;20459;-64
2023/05/04 05:40:43;;;;;;;6.97;6.37;;;6.70;1.00;;;;;;5113581;28;20459;-62
2023/05/04 05:43:11;;;;;;;8.63;6.83;;;6.90;1.00;;;;;;5111965;28;20460;-62
2023/05/04 05:45:38;;;;;;;7.87;5.90;;;7.10;1.00;;;;;;5112012;28;20463;-62
2023/05/04 05:48:05;;;;;;;7.70;6.57;;;7.30;1.00;;;;;;5112144;28;20763;-62
2023/05/04 05:50:34;;;;;;;13.23;7.50;;;7.50;1.00;;;;;;5113023;28;20759;-62
2023/05/04 05:53:01;;;;;;;8.00;6.50;;;7.80;1.00;;;;;;5114215;28;20891;-62
2023/05/04 05:55:28;;;;;;;9.87;6.70;;;8.10;99.90;;;;;;5115435;28;20491;-62
2023/05/04 05:57:55;;;;;;;9.93;6.40;;;8.40;99.90;;;;;;5115226;28;20562;-62
2023/05/04 06:00:23;;;;;;;6.93;5.50;;;8.70;99.90;;;;;;5115511;28;20460;-63
2023/05/04 06:02:51;;;;;;;7.23;5.73;;;9.10;99.90;;;;;;5115764;28;20460;-63
2023/05/04 06:05:18;;;;;;;6.47;5.63;;;9.50;99.90;;;;;;5115476;28;20766;-62
2023/05/04 06:07:47;;;;;;;10.70;6.20;;;9.90;99.90;;;;;;5114839;28;20464;-62
2023/05/04 06:10:14;;;;;;;6.23;5.73;;;10.20;99.90;;;;;;5114724;28;20438;-61
2023/05/04 06:12:41;;;;;;;8.70;6.63;;;10.60;99.90;;;;;;5114196;28;20904;-61
2023/05/04 06:15:10;;;;;;;6.77;6.17;;;10.80;99.90;;;;;;5112525;28;20543;-62
2023/05/04 06:17:37;;;;;;;6.40;5.10;;;11.20;99.90;;;;;;5102656;28;20513;-63
2023/05/04 06:20:05;;;;;;;6.00;5.40;;;11.50;99.90;;;;;;5101872;28;20521;-63
2023/05/04 06:22:32;;;;;;;7.63;5.80;;;11.90;99.90;;;;;;5101796;28;20457;-62
2023/05/04 06:25:00;;;;;;;6.50;5.60;;;12.30;99.90;;;;;;5101879;28;20798;-63
2023/05/04 06:27:30;;;;;;;5.70;5.03;;;12.80;99.90;;;;;;5102212;28;20495;-63
2023/05/04 06:29:57;;;;;;;10.30;5.57;;;13.30;99.90;;;;;;5101528;28;20468;-61
2023/05/04 06:32:24;;;;;;;5.17;4.60;;;13.60;99.90;;;;;;5102071;28;20777;-61
2023/05/04 06:34:54;;;;;;;7.50;4.80;;;13.70;99.90;;;;;;5103119;28;20488;-62
2023/05/04 06:37:21;;;;;;;6.47;4.97;;;13.70;99.90;;;;;;5102652;28;20468;-62
2023/05/04 06:39:48;;;;;;;5.23;4.73;;;13.30;99.90;;;;;;5101250;28;20546;-62
2023/05/04 06:42:17;;;;;;;5.53;4.90;;;13.50;99.90;;;;;;5101763;28;20464;-62
2023/05/04 06:44:44;;;;;;;5.53;5.00;;;13.50;99.90;;;;;;5101100;28;20460;-61
2023/05/04 06:47:11;;;;;;;11.30;5.30;;;13.90;99.90;;;;;;5098770;28;20460;-61
2023/05/04 06:49:38;;;;;;;6.17;4.37;;;14.30;99.90;;;;;;5098519;28;20456;-62
2023/05/04 06:52:05;;;;;;;5.53;4.20;;;14.50;99.90;;;;;;5098670;28;20466;-62
2023/05/04 06:54:33;;;;;;;6.93;4.77;;;14.80;99.90;;;;;;5100013;28;20496;-62
2023/05/04 06:57:01;;;;;;;5.80;5.20;;;15.30;99.90;;;;;;5099643;28;20571;-61
2023/05/04 06:59:30;;;;;;;5.90;4.93;;;15.60;99.90;;;;;;5098696;28;20518;-60
2023/05/04 07:01:57;;;;;;;6.20;4.70;;;15.70;99.90;;;;;;5099339;28;20858;-61
2023/05/04 07:04:24;;;;;;;6.47;4.63;;;15.90;99.90;;;;;;5100039;28;20880;-60
2023/05/04 07:06:51;;;;;;;11.60;5.57;;;16.00;99.90;;;;;;5099791;28;20471;-60
2023/05/04 07:09:20;;;;;;;8.33;5.53;;;16.30;99.90;;;;;;5099558;28;20884;-61
2023/05/04 07:11:47;;;;;;;5.57;5.07;;;16.50;99.90;;;;;;5098869;28;20467;-61
2023/05/04 07:14:14;;;;;;;5.20;4.43;;;16.60;99.90;;;;;;5098177;28;20489;-62
2023/05/04 07:16:43;;;;;;;7.70;5.60;;;16.70;99.90;;;;;;5096942;28;20562;-62
2023/05/04 07:19:10;;;;;;;6.27;4.63;;;17.10;99.90;;;;;;5097279;28;20464;-62
2023/05/04 07:21:37;;;;;;;5.07;4.57;;;17.50;99.90;;;;;;5084682;28;20484;-62
2023/05/04 07:24:05;;;;;;;5.43;4.60;;;17.70;99.90;;;;;;5077489;28;20869;-60
2023/05/04 07:26:32;;;;;;;5.70;4.93;;;17.90;99.90;;;;;;5076661;28;20508;-60
2023/05/04 07:29:00;;;;;;;6.20;4.40;;;18.00;99.90;;;;;;5075679;28;20489;-62
2023/05/04 07:31:27;;;;;;;5.20;4.67;;;18.10;99.90;;;;;;5077342;28;20453;-60
2023/05/04 07:33:55;;;;;;;6.47;5.57;;;18.30;99.90;;;;;;5076426;28;20461;-61
2023/05/04 07:36:25;;;;;;;6.70;4.97;;;18.20;99.90;;;;;;5076909;28;20788;-61
2023/05/04 07:38:52;;;;;;;5.27;4.87;;;18.40;99.90;;;;;;5077147;28;20568;-60
2023/05/04 07:41:19;;;;;;;5.53;5.03;;;18.70;99.90;;;;;;5076073;28;20902;-60
2023/05/04 07:43:47;;;;;;;6.10;4.53;;;18.80;99.90;;;;;;5077097;28;20501;-62
2023/05/04 07:46:14;;;;;;;8.37;5.13;;;18.90;99.90;;;;;;5078037;28;20461;-61
2023/05/04 07:48:41;;;;;;;5.57;4.50;;;19.10;99.90;;;;;;5078717;28;20724;-60
2023/05/04 07:51:15;;;;;;;5.37;4.97;;;19.30;99.90;;;;;;5077766;28;20461;-61
2023/05/04 07:53:42;;;;;;;5.43;5.00;;;19.60;99.90;;;;;;5077338;28;20519;-61
2023/05/04 07:56:11;;;;;;;6.17;5.10;;;19.80;99.90;;;;;;5077920;28;20543;-60
2023/05/04 07:58:38;;;;;;;5.77;5.27;;;19.80;99.90;;;;;;5078093;28;20468;-61
2023/05/04 08:01:05;;;;;;;7.87;5.67;;;19.70;99.90;;;;;;5077896;28;20476;-62
2023/05/04 08:03:32;;;;;;;5.60;4.43;;;19.50;99.90;;;;;;5076805;28;20945;-62
2023/05/04 08:06:00;;;;;;;6.20;5.07;;;20.00;99.90;;;;;;5076288;28;20461;-61
2023/05/04 08:08:28;;;;;;;6.60;5.20;;;20.10;99.90;;;;;;5076948;28;20460;-61
2023/05/04 08:10:55;;;;;;;5.67;5.10;;;20.10;99.90;;;;;;5077174;28;20972;-62
2023/05/04 08:13:22;;;;;;;5.60;5.00;;;20.30;99.90;;;;;;5076739;28;20544;-62
2023/05/04 08:15:50;;;;;;;7.53;5.20;;;20.30;99.90;;;;;;5076572;28;20533;-62
2023/05/04 08:18:17;;;;;;;6.10;5.50;;;20.20;99.90;;;;;;5076005;28;20461;-61
2023/05/04 08:20:44;;;;;;;6.00;5.50;;;20.40;99.90;;;;;;5075286;28;20824;-62
2023/05/04 08:23:11;;;;;;;5.53;5.10;;;20.80;99.90;;;;;;5075286;28;20468;-62
2023/05/04 08:25:39;;;;;;;6.77;5.90;;;21.10;99.90;;;;;;5074908;28;20463;-63
2023/05/04 08:28:07;;;;;;;5.80;5.30;;;21.10;99.90;;;;;;5075224;28;20487;-62
2023/05/04 08:30:34;;;;;;;6.53;5.93;;;21.10;99.90;;;;;;5075511;28;20472;-62
2023/05/04 08:33:01;;;;;;;6.40;5.90;;;21.40;99.90;;;;;;5075513;28;20461;-61
2023/05/04 08:35:29;;;;;;;8.23;6.53;;;21.40;99.90;;;;;;5077800;28;20494;-60
2023/05/04 08:37:56;;;;;;;7.90;6.73;;;21.30;99.90;;;;;;5077006;28;20461;-61
2023/05/04 08:40:24;;;;;;;5.93;5.43;;;21.30;99.90;;;;;;5077223;28;20484;-60
2023/05/04 08:42:52;;;;;;;6.80;6.20;;;21.40;99.90;;;;;;5077364;28;20466;-62
2023/05/04 08:45:20;;;;;;;6.53;6.03;;;21.50;99.90;;;;;;5077447;28;20534;-59
2023/05/04 08:47:47;;;;;;;6.97;6.27;;;21.50;99.90;;;;;;5076696;28;20463;-61
2023/05/04 08:50:14;;;;;;;6.27;5.77;;;21.70;99.90;;;;;;5077340;28;20941;-62
2023/05/04 08:52:46;;;;;;;7.20;6.50;;;22.00;99.90;;;;;;5077113;28;20468;-59
2023/05/04 08:55:15;;;;;;;6.83;6.13;;;22.20;99.90;;;;;;5077822;28;20512;-60
2023/05/04 08:57:44;;;;;;;7.63;6.50;;;22.00;99.90;;;;;;5095723;28;20880;-61
2023/05/04 09:00:17;;;;;;;6.63;6.13;;;21.70;99.90;;;;;;5095187;28;20909;-60
2023/05/04 09:02:46;;;;;;;6.83;5.97;;;21.80;99.90;;;;;;5097416;28;20467;-62
2023/05/04 09:05:14;;;;;;;6.63;6.03;;;22.00;99.90;;;;;;5095146;28;20474;-61
2023/05/04 09:07:41;;;;;;;7.00;5.90;;;22.30;99.90;;;;;;5095346;28;20526;-62
2023/05/04 09:10:10;;;;;;;6.00;5.50;;;22.50;99.90;;;;;;5095910;28;20487;-61
2023/05/04 09:12:37;;;;;;;7.30;6.60;;;22.70;99.90;;;;;;5094380;28;20493;-62
2023/05/04 09:15:16;;;;;;;8.57;6.57;;;22.80;99.90;;;;;;5074816;28;20497;-61
2023/05/04 09:17:43;;;;;;;7.23;5.90;;;22.40;99.90;;;;;;5075114;28;20534;-61
2023/05/04 09:20:12;;;;;;;6.07;5.47;;;22.50;99.90;;;;;;5090212;28;20774;-62
2023/05/04 09:22:39;;;;;;;5.83;5.33;;;22.60;99.90;;;;;;5097446;28;20534;-61
2023/05/04 09:25:08;;;;;;;5.63;5.03;;;23.00;99.90;;;;;;5097280;28;20456;-61
2023/05/04 09:27:35;;;;;;;6.47;5.77;;;23.20;99.90;;;;;;5093913;28;20781;-62
2023/05/04 09:30:04;;;;;;;6.03;5.53;;;23.50;99.90;;;;;;5095333;28;20471;-61
2023/05/04 09:32:37;;;;;;;5.80;5.13;;;23.30;99.90;;;;;;5095310;28;20893;-62
2023/05/04 09:35:05;;;;;;;6.43;5.40;;;23.60;99.90;;;;;;5095162;28;20496;-61
2023/05/04 09:37:43;;;;;;;6.27;5.70;;;23.80;99.90;;;;;;5095849;28;20460;-60
2023/05/04 09:40:11;;;;;;;5.80;5.40;;;23.80;99.90;;;;;;5095341;28;20765;-61
2023/05/04 09:42:39;;;;;;;7.00;6.40;;;23.90;99.90;;;;;;5096752;28;20518;-62
2023/05/04 09:45:08;;;;;;;5.87;4.93;;;23.90;99.90;;;;;;5095490;28;20770;-62
2023/05/04 09:47:38;;;;;;;5.63;5.13;;;24.10;99.90;;;;;;5096930;28;20464;-62
2023/05/04 09:50:13;;;;;;;5.57;5.17;;;24.10;99.90;;;;;;5094505;28;20476;-62
2023/05/04 09:52:42;;;;;;;5.30;4.90;;;24.30;99.90;;;;;;5096398;28;20470;-61
2023/05/04 09:55:12;;;;;;;7.70;5.53;;;23.80;99.90;;;;;;5097789;28;20491;-62
2023/05/04 09:57:41;;;;;;;7.33;5.43;;;24.10;99.90;;;;;;5085208;28;20472;-61
2023/05/04 10:00:11;;;;;;;5.77;5.27;;;23.80;99.90;;;;;;5096630;28;20506;-61
2023/05/04 10:02:41;;;;;;;5.57;4.93;;;24.10;99.90;;;;;;5097728;28;20483;-62
2023/05/04 10:05:09;;;;;;;5.70;5.20;;;23.50;99.90;;;;;;5100755;28;20897;-62
2023/05/04 10:07:37;;;;;;;7.47;5.43;;;23.70;99.90;;;;;;5099551;28;20496;-61
2023/05/04 10:10:06;;;;;;;6.30;5.00;;;24.30;99.90;;;;;;5099273;28;20649;-62
2023/05/04 10:12:33;;;;;;;6.07;5.53;;;24.70;99.90;;;;;;5100437;28;20464;-61
2023/05/04 10:15:01;;;;;;;5.93;5.17;;;24.80;99.90;;;;;;5099795;28;20483;-62
2023/05/04 10:17:39;;;;;;;5.70;5.30;;;25.10;99.90;;;;;;5100388;28;20700;-61
2023/05/04 10:20:20;;;;;;;5.87;5.17;;;24.90;99.90;;;;;;5100166;28;20478;-62
2023/05/04 10:23:11;;;;;;;5.83;5.20;;;25.30;99.90;;;;;;5100360;28;20464;-62
2023/05/04 10:26:19;;;;;;;6.60;4.90;;;25.50;99.90;;;;;;5099860;28;20903;-62
2023/05/04 10:28:58;;;;;;;11.93;5.70;;;25.40;99.90;;;;;;5098901;28;20467;-61
2023/05/04 10:31:26;;;;;;;4.77;4.37;;;25.20;99.90;;;;;;5099036;28;20456;-62
2023/05/04 10:33:53;;;;;;;4.77;4.37;;;25.30;99.90;;;;;;5099362;28;20478;-61
2023/05/04 10:36:21;;;;;;;4.80;4.10;;;25.30;99.90;;;;;;5099827;28;20563;-61
2023/05/04 10:38:49;;;;;;;6.43;5.07;;;25.00;99.90;;;;;;5099754;28;20461;-62
2023/05/04 10:41:16;;;;;;;5.53;5.03;;;24.90;99.90;;;;;;5099628;28;20468;-62
2023/05/04 10:43:47;;;;;;;5.50;4.80;;;24.30;99.90;;;;;;5099279;28;20767;-61
2023/05/04 10:46:21;;;;;;;4.63;4.23;;;24.80;99.90;;;;;;5099256;28;20558;-61
2023/05/04 10:48:49;;;;;;;5.33;4.80;;;25.20;99.90;;;;;;5099711;28;20460;-62
2023/05/04 10:51:24;;;;;;;4.50;4.00;;;25.50;99.90;;;;;;5099608;28;20464;-62
2023/05/04 10:53:51;;;;;;;4.90;4.57;;;25.80;99.90;;;;;;5099684;28;20486;-62
2023/05/04 10:56:22;;;;;;;4.67;4.30;;;26.30;99.90;;;;;;5099243;28;20492;-62
2023/05/04 10:58:50;;;;;;;5.00;4.50;;;26.50;99.90;;;;;;5096000;28;20464;-63
2023/05/04 11:01:21;;;;;;;4.80;4.50;;;26.50;99.90;;;;;;5086397;28;20788;-64
2023/05/04 11:03:49;;;;;;;4.27;3.93;;;26.50;99.90;;;;;;5080325;28;20469;-64
2023/05/04 11:06:18;;;;;;;4.43;4.03;;;26.40;99.90;;;;;;5099342;28;20868;-64
2023/05/04 11:08:49;;;;;;;7.03;4.53;;;26.50;99.90;;;;;;5098523;28;20473;-63
2023/05/04 11:11:16;;;;;;;4.30;3.90;;;26.70;99.90;;;;;;5092457;28;20496;-63
2023/05/04 11:13:46;;;;;;;7.33;3.47;;;27.20;99.90;;;;;;5110056;28;20769;-63
2023/05/04 11:16:13;;;;;;;5.40;3.93;;;27.20;99.90;;;;;;5088131;28;20974;-62
2023/05/04 11:18:41;;;;;;;8.00;4.10;;;27.00;99.90;;;;;;5098655;28;20460;-63
2023/05/04 11:21:09;;;;;;;4.87;4.37;;;26.30;99.90;;;;;;5098426;28;20470;-62
2023/05/04 11:23:37;;;;;;;4.43;4.13;;;26.00;99.90;;;;;;5096100;28;20464;-62
2023/05/04 11:26:08;;;;;;;5.00;4.60;;;26.20;99.90;;;;;;5095686;28;20457;-61
2023/05/04 11:28:36;;;;;;;4.20;3.90;;;26.50;99.90;;;;;;5097510;28;20737;-58
2023/05/04 11:31:13;;;;;;;4.70;4.00;;;26.70;99.90;;;;;;5096085;28;20479;-61
2023/05/04 11:33:46;;;;;;;4.43;4.00;;;26.40;99.90;;;;;;5096273;28;20456;-61
2023/05/04 11:36:14;;;;;;;5.30;4.13;;;26.70;99.90;;;;;;5097017;28;20499;-61
2023/05/04 11:38:42;;;;;;;4.67;4.27;;;26.90;99.90;;;;;;5096597;28;20478;-61
2023/05/04 11:41:11;;;;;;;4.40;4.10;;;27.20;99.90;;;;;;5095652;28;20460;-62
2023/05/04 11:43:40;;;;;;;5.20;4.80;;;27.10;99.90;;;;;;5097560;28;20464;-61
2023/05/04 11:46:09;;;;;;;4.87;4.37;;;27.10;99.90;;;;;;5096748;28;20464;-61
2023/05/04 11:48:36;;;;;;;6.67;4.17;;;27.00;99.90;;;;;;5096127;28;20903;-61
2023/05/04 11:51:04;;;;;;;4.27;3.87;;;26.80;99.90;;;;;;5096198;28;20469;-59
2023/05/04 11:53:37;;;;;;;5.00;4.60;;;27.00;99.90;;;;;;5089421;28;20748;-61
2023/05/04 11:56:07;;;;;;;3.97;3.67;;;27.20;99.90;;;;;;5089889;28;20454;-62
2023/05/04 11:58:36;;;;;;;4.30;3.63;;;27.30;99.90;;;;;;5075490;28;20826;-61
2023/05/04 12:01:03;;;;;;;4.40;3.93;;;27.50;99.90;;;;;;5074241;28;20468;-61
2023/05/04 12:03:31;;;;;;;3.67;3.37;;;27.80;99.90;;;;;;5080696;28;20907;-62
2023/05/04 12:06:00;;;;;;;5.63;4.33;;;27.90;99.90;;;;;;5094302;28;20453;-61
2023/05/04 12:08:30;;;;;;;4.53;3.80;;;28.20;99.90;;;;;;5087071;28;20472;-59
2023/05/04 12:11:14;;;;;;;4.50;4.17;;;28.00;99.90;;;;;;5094955;28;20496;-61
2023/05/04 12:13:45;;;;;;;4.53;4.17;;;27.80;99.90;;;;;;5093161;28;20893;-58
2023/05/04 12:16:13;;;;;;;5.10;4.70;;;28.00;99.90;;;;;;5093681;28;20491;-62
2023/05/04 12:18:40;;;;;;;4.47;3.90;;;27.90;99.90;;;;;;5094952;28;20461;-61
2023/05/04 12:21:12;;;;;;;5.30;3.90;;;27.80;99.90;;;;;;5078003;28;20497;-61
2023/05/04 12:23:40;;;;;;;6.80;4.13;;;27.80;99.90;;;;;;5076004;28;20881;-62
2023/05/04 12:26:07;;;;;;;4.50;4.10;;;27.90;99.90;;;;;;5080255;28;20542;-61
2023/05/04 12:28:35;;;;;;;6.60;3.37;;;28.10;99.90;;;;;;5094509;28;20522;-61
2023/05/04 12:31:05;;;;;;;4.73;4.27;;;27.80;99.90;;;;;;5093979;28;20533;-61
2023/05/04 12:33:33;;;;;;;4.83;4.43;;;27.80;99.90;;;;;;5093639;28;20518;-61
2023/05/04 12:36:01;;;;;;;4.10;3.80;;;27.10;99.90;;;;;;5092800;28;20476;-62
2023/05/04 12:38:28;;;;;;;4.70;4.30;;;27.20;99.90;;;;;;5092930;28;21083;-61
2023/05/04 12:40:57;;;;;;;5.37;4.80;;;27.50;99.90;;;;;;5092178;28;20857;-61
2023/05/04 12:43:25;;;;;;;6.23;4.60;;;27.50;99.90;;;;;;5093574;28;20793;-61
2023/05/04 12:45:53;;;;;;;5.00;4.60;;;27.50;99.90;;;;;;5093215;28;20457;-61
2023/05/04 12:48:21;;;;;;;8.67;4.80;;;27.50;99.90;;;;;;5093900;28;20467;-60
2023/05/04 12:50:49;;;;;;;3.90;3.60;;;27.80;99.90;;;;;;5095770;28;20465;-58
2023/05/04 12:53:17;;;;;;;9.13;4.10;;;28.10;99.90;;;;;;5096522;28;20460;-61
2023/05/04 12:55:45;;;;;;;4.70;3.97;;;28.40;99.90;;;;;;5096345;28;20460;-61
2023/05/04 12:58:12;;;;;;;5.10;4.53;;;28.70;99.90;;;;;;5097089;28;20468;-61
2023/05/04 13:00:39;;;;;;;5.10;3.57;;;28.70;99.90;;;;;;5097234;28;20460;-61
2023/05/04 13:03:06;;;;;;;4.10;3.80;;;27.90;99.90;;;;;;5097443;28;20881;-61
2023/05/04 13:05:34;;;;;;;4.47;4.10;;;28.00;99.90;;;;;;5097362;28;20899;-60
2023/05/04 13:08:02;;;;;;;4.43;3.63;;;28.00;99.90;;;;;;5097219;28;20460;-61
2023/05/04 13:10:29;;;;;;;4.77;4.27;;;27.70;99.90;;;;;;5093693;28;20473;-61
2023/05/04 13:12:56;;;;;;;4.17;3.87;;;27.90;99.90;;;;;;5096855;28;20468;-60
2023/05/04 13:15:23;;;;;;;3.73;3.43;;;28.10;99.90;;;;;;5096037;28;20506;-61
2023/05/04 13:17:50;;;;;;;4.27;3.97;;;28.40;99.90;;;;;;5096891;28;20492;-61
2023/05/04 13:20:17;;;;;;;4.30;4.00;;;28.50;99.90;;;;;;5095720;28;20456;-60
2023/05/04 13:22:47;;;;;;;3.60;3.30;;;28.30;99.90;;;;;;5095947;28;20460;-61
2023/05/04 13:25:14;;;;;;;3.43;3.23;;;28.40;99.90;;;;;;5097043;28;20465;-59
2023/05/04 13:27:41;;;;;;;4.87;4.47;;;28.30;99.90;;;;;;5101288;28;20530;-61
2023/05/04 13:30:10;;;;;;;4.50;4.10;;;28.20;99.90;;;;;;5101362;28;20742;-61
2023/05/04 13:32:38;;;;;;;4.70;3.77;;;27.80;99.90;;;;;;5098781;28;20555;-59
2023/05/04 13:35:06;;;;;;;4.37;3.50;;;27.80;99.90;;;;;;5096757;28;20460;-59
2023/05/04 13:37:33;;;;;;;3.60;3.40;;;27.70;99.90;;;;;;5092737;28;20511;-61
2023/05/04 13:40:02;;;;;;;3.70;3.40;;;27.70;99.90;;;;;;5098505;28;20467;-61
2023/05/04 13:42:29;;;;;;;5.00;4.10;;;28.10;99.90;;;;;;5092103;28;20583;-58
2023/05/04 13:44:56;;;;;;;4.07;3.67;;;28.20;99.90;;;;;;5095430;28;20460;-60
2023/05/04 13:47:24;;;;;;;3.43;3.23;;;28.00;99.90;;;;;;5099160;28;20885;-61
2023/05/04 13:49:52;;;;;;;3.90;3.60;;;28.20;99.90;;;;;;5084710;28;20996;-61
2023/05/04 13:52:19;;;;;;;3.63;3.33;;;28.30;99.90;;;;;;5088118;28;20555;-61
2023/05/04 13:54:46;;;;;;;3.90;3.60;;;28.10;99.90;;;;;;5098565;28;20476;-61
2023/05/04 13:57:15;;;;;;;3.73;3.47;;;28.10;99.90;;;;;;5097649;28;20528;-61
2023/05/04 13:59:42;;;;;;;4.90;3.10;;;28.50;99.90;;;;;;5097187;28;20460;-57